createdAt,value
2022-08-18T04:02:35.783Z,98447.97
2022-08-18T04:05:05.408Z,98449.31
2022-08-18T04:07:34.974Z,98453.56
2022-08-18T04:10:04.385Z,98451.16
2022-08-18T04:12:33.825Z,98455.72
2022-08-18T04:15:03.428Z,98453.59
2022-08-18T04:17:35.470Z,98456.53
2022-08-18T04:20:24.811Z,98466.50
2022-08-18T04:22:54.548Z,98470.53
2022-08-18T04:25:24.057Z,98474.31
2022-08-18T04:27:55.234Z,98468.91
2022-08-18T04:30:24.604Z,98468.63
2022-08-18T04:32:56.703Z,98471.84
2022-08-18T04:35:26.079Z,98469.44
2022-08-18T04:37:55.701Z,98482.59
2022-08-18T04:40:27.265Z,98474.81
2022-08-18T04:42:57.461Z,98483.44
2022-08-18T04:45:26.862Z,98487.47
2022-08-18T04:47:58.856Z,98488.00
2022-08-18T04:50:28.191Z,98486.66
2022-08-18T04:53:12.069Z,98497.66
2022-08-18T04:55:41.392Z,98505.75
2022-08-18T04:58:10.757Z,98503.84
2022-08-18T05:00:40.193Z,98498.47
2022-08-18T05:03:12.156Z,98493.38
2022-08-18T05:05:41.684Z,98501.69
2022-08-18T05:08:11.055Z,98500.88
2022-08-18T05:10:41.417Z,98503.00
2022-08-18T05:13:10.848Z,98520.72
2022-08-18T05:15:59.702Z,98521.03
2022-08-18T05:18:32.851Z,98521.84
2022-08-18T05:21:03.355Z,98522.41
2022-08-18T05:23:36.246Z,98517.81
2022-08-18T05:26:06.395Z,98536.34
2022-08-18T05:28:37.660Z,98534.50
2022-08-18T05:31:13.893Z,98541.47
2022-08-18T05:33:46.681Z,98532.59
2022-08-18T05:36:24.152Z,98531.53
2022-08-18T05:38:57.392Z,98532.88
2022-08-18T05:41:30.021Z,98525.91
2022-08-18T05:44:00.071Z,98530.44
2022-08-18T05:46:40.651Z,98532.09
2022-08-18T05:49:13.589Z,98528.59
2022-08-18T05:51:45.143Z,98524.03
2022-08-18T05:54:27.864Z,98524.00
2022-08-18T05:56:59.297Z,98524.53
2022-08-18T05:59:36.655Z,98518.91
2022-08-18T06:02:13.295Z,98518.34
2022-08-18T06:04:49.305Z,98513.25
2022-08-18T06:07:20.225Z,98521.59
2022-08-18T06:09:52.576Z,98519.69
2022-08-18T06:12:28.476Z,98518.88
2022-08-18T06:15:06.262Z,98510.81
2022-08-18T06:17:45.122Z,98518.06
2022-08-18T06:20:23.489Z,98522.91
2022-08-18T06:22:57.480Z,98524.50
2022-08-18T06:25:30.308Z,98525.56
2022-08-18T06:28:04.810Z,98518.06
2022-08-18T06:30:43.225Z,98525.06
2022-08-18T06:33:15.629Z,98517.81
2022-08-18T06:35:50.201Z,98523.72
2022-08-18T06:38:45.443Z,98526.66
2022-08-18T06:41:40.567Z,98533.66
2022-08-18T06:44:10.646Z,98534.75
2022-08-18T06:46:44.153Z,98544.13
2022-08-18T06:49:15.591Z,98545.50
2022-08-18T06:51:47.559Z,98548.75
2022-08-18T06:54:29.611Z,98546.84
2022-08-18T06:56:59.738Z,98543.34
2022-08-18T06:59:30.172Z,98543.84
2022-08-18T07:02:03.045Z,98546.25
2022-08-18T07:04:38.233Z,98541.72
2022-08-18T07:07:20.997Z,98549.78
2022-08-18T07:09:51.148Z,98541.72
2022-08-18T07:12:29.063Z,98546.81
2022-08-18T07:15:03.148Z,98541.72
2022-08-18T07:17:42.364Z,98545.47
2022-08-18T07:20:21.563Z,98546.03
2022-08-18T07:22:59.796Z,98553.56
2022-08-18T07:25:30.640Z,98549.25
2022-08-18T07:28:02.006Z,98552.75
2022-08-18T07:30:33.364Z,98553.56
2022-08-18T07:33:07.719Z,98551.41
2022-08-18T07:35:40.540Z,98566.19
2022-08-18T07:38:40.694Z,98565.09
2022-08-18T07:41:09.150Z,98564.84
2022-08-18T07:43:43.242Z,98578.31
2022-08-18T07:46:15.668Z,98568.91
2022-08-18T07:48:45.078Z,98581.78
2022-08-18T07:51:21.632Z,98573.16
2022-08-18T07:53:59.399Z,98576.94
2022-08-18T07:56:38.402Z,98573.97
2022-08-18T07:59:13.823Z,98572.13
2022-08-18T08:01:46.972Z,98576.16
2022-08-18T08:04:25.011Z,98567.31
2022-08-18T08:07:22.981Z,98567.88
2022-08-18T08:09:55.684Z,98561.66
2022-08-18T08:12:31.181Z,98564.38
2022-08-18T08:15:07.916Z,98558.72
2022-08-18T08:17:43.342Z,98560.06
2022-08-18T08:20:18.447Z,98564.38
2022-08-18T08:22:54.731Z,98571.38
2022-08-18T08:25:45.657Z,98567.03
2022-08-18T08:28:23.064Z,98570.84
2022-08-18T08:31:13.596Z,98571.38
2022-08-18T08:33:50.023Z,98564.09
2022-08-18T08:36:22.497Z,98566.50
2022-08-18T08:38:54.941Z,98563.81
2022-08-18T08:41:31.306Z,98567.34
2022-08-18T08:44:05.523Z,98574.59
2022-08-18T08:46:40.178Z,98569.75
2022-08-18T08:49:15.603Z,98579.16
2022-08-18T08:51:47.779Z,98585.63
2022-08-18T08:54:20.130Z,98584.81
2022-08-18T08:56:53.261Z,98592.88
2022-08-18T08:59:25.240Z,98607.16
2022-08-18T09:01:59.299Z,98610.63
2022-08-18T09:04:36.213Z,98611.97
2022-08-18T09:07:15.436Z,98614.38
2022-08-18T09:09:52.457Z,98605.78
2022-08-18T09:12:36.463Z,98593.41
2022-08-18T09:15:20.918Z,98606.34
2022-08-18T09:18:05.191Z,98604.16
2022-08-18T09:20:47.187Z,98607.94
2022-08-18T09:23:21.097Z,98609.53
2022-08-18T09:25:52.434Z,98612.25
2022-08-18T09:28:25.862Z,98619.50
2022-08-18T09:31:19.646Z,98620.84
2022-08-18T09:34:02.523Z,98609.53
2022-08-18T09:36:41.117Z,98606.31
2022-08-18T09:39:34.541Z,98598.53
2022-08-18T09:42:07.084Z,98598.78
2022-08-18T09:44:52.148Z,98602.00
2022-08-18T09:47:37.443Z,98597.97
2022-08-18T09:50:42.572Z,98595.81
2022-08-18T09:53:36.915Z,98586.41
2022-08-18T09:56:08.263Z,98586.16
2022-08-18T09:58:52.815Z,98588.28
2022-08-18T10:01:34.547Z,98586.94
2022-08-18T10:04:21.791Z,98576.69
2022-08-18T10:07:16.402Z,98584.00
2022-08-18T10:09:52.553Z,98588.28
2022-08-18T10:12:37.065Z,98589.34
2022-08-18T10:15:32.809Z,98593.94
2022-08-18T10:18:14.476Z,98594.75
2022-08-18T10:20:52.080Z,98585.31
2022-08-18T10:23:38.457Z,98583.72
2022-08-18T10:26:32.591Z,98588.56
2022-08-18T10:29:05.653Z,98580.50
2022-08-18T10:31:55.251Z,98575.66
2022-08-18T10:34:40.296Z,98576.22
2022-08-18T10:37:26.178Z,98558.97
2022-08-18T10:39:58.027Z,98571.63
2022-08-18T10:42:31.465Z,98572.38
2022-08-18T10:45:09.416Z,98572.66
2022-08-18T10:47:39.255Z,98567.81
2022-08-18T10:50:10.925Z,98571.31
2022-08-18T10:53:16.957Z,98577.72
2022-08-18T10:55:51.040Z,98578.81
2022-08-18T10:58:50.813Z,98580.94
2022-08-18T11:01:30.982Z,98573.97
2022-08-18T11:04:14.271Z,98550.03
2022-08-18T11:07:01.040Z,98518.28
2022-08-18T11:09:31.866Z,98520.16
2022-08-18T11:12:04.247Z,98541.38
2022-08-18T11:14:45.420Z,98554.75
2022-08-18T11:17:28.899Z,98565.00
2022-08-18T11:19:59.360Z,98547.81
2022-08-18T11:25:22.341Z,98537.66
2022-08-18T11:27:51.986Z,98546.78
2022-08-18T11:30:30.440Z,98551.06
2022-08-18T11:33:04.155Z,98541.06
2022-08-18T11:35:35.516Z,98542.88
2022-08-18T11:38:06.505Z,98550.94
2022-08-18T11:41:10.940Z,98547.16
2022-08-18T11:43:41.646Z,98542.88
2022-08-18T11:46:17.030Z,98543.75
2022-08-18T11:48:56.385Z,98537.53
2022-08-18T11:51:27.402Z,98532.91
2022-08-18T11:54:00.112Z,98532.75
2022-08-18T11:56:32.377Z,98534.06
2022-08-18T11:59:08.715Z,98530.28
2022-08-18T12:01:43.148Z,98524.31
2022-08-18T12:04:18.300Z,98523.75
2022-08-18T12:06:59.920Z,98525.06
2022-08-18T12:10:16.950Z,98521.16
2022-08-18T12:12:28.334Z,98515.16
2022-08-18T12:15:11.809Z,98518.34
2022-08-18T12:17:52.244Z,98508.56
2022-08-18T12:20:25.330Z,98520.19
2022-08-18T12:22:58.470Z,98523.63
2022-08-18T12:25:27.889Z,98522.78
2022-08-18T12:27:57.442Z,98519.22
2022-08-18T12:30:26.790Z,98525.47
2022-08-18T12:33:08.114Z,98521.63
2022-08-18T12:35:44.652Z,98525.41
2022-08-18T12:38:17.932Z,98525.81
2022-08-18T12:40:47.785Z,98524.63
2022-08-18T12:43:17.194Z,98522.09
2022-08-18T12:45:46.701Z,98516.41
2022-08-18T12:48:16.228Z,98513.72
2022-08-18T12:50:54.203Z,98504.41
2022-08-18T12:56:20.938Z,98499.00
2022-08-18T12:58:50.515Z,98484.13
2022-08-18T13:01:20.320Z,98478.03
2022-08-18T13:04:11.112Z,98480.84
2022-08-18T13:07:00.390Z,98484.84
2022-08-18T13:09:34.862Z,98481.94
2022-08-18T13:12:19.271Z,98474.94
2022-08-18T13:14:49.922Z,98476.16
2022-08-18T13:17:33.308Z,98480.69
2022-08-18T13:20:05.388Z,98466.81
2022-08-18T13:22:37.518Z,98470.75
2022-08-18T13:25:07.948Z,98469.06
2022-08-18T13:27:37.874Z,98468.78
2022-08-18T13:30:16.878Z,98475.63
2022-08-18T13:33:02.173Z,98461.53
2022-08-18T13:35:35.270Z,98458.34
2022-08-18T13:38:25.597Z,98459.44
2022-08-18T13:40:56.735Z,98462.78
2022-08-18T13:43:30.304Z,98450.22
2022-08-18T13:45:59.956Z,98443.81
2022-08-18T13:48:31.541Z,98438.19
2022-08-18T13:51:02.317Z,98439.56
2022-08-18T13:53:37.523Z,98435.28
2022-08-18T13:56:20.764Z,98441.94
2022-08-18T13:59:01.250Z,98441.28
2022-08-18T14:01:45.140Z,98444.19
2022-08-18T14:04:22.406Z,98440.47
2022-08-18T14:06:56.954Z,98432.41
2022-08-18T14:09:37.062Z,98433.31
2022-08-18T14:12:16.054Z,98424.28
2022-08-18T14:14:52.493Z,98426.81
2022-08-18T14:17:22.598Z,98429.22
2022-08-18T14:20:05.013Z,98423.59
2022-08-18T14:22:52.960Z,98425.59
2022-08-18T14:25:38.683Z,98424.13
2022-08-18T14:28:09.365Z,98428.41
2022-08-18T14:30:41.370Z,98434.94
2022-08-18T14:33:49.377Z,98428.19
2022-08-18T14:36:12.265Z,98422.09
2022-08-18T14:38:42.183Z,98416.38
2022-08-18T14:41:15.635Z,98420.16
2022-08-18T14:44:11.610Z,98418.03
2022-08-18T14:46:35.912Z,98421.75
2022-08-18T14:49:05.376Z,98420.13
2022-08-18T14:51:35.462Z,98422.59
2022-08-18T14:54:05.070Z,98423.66
2022-08-18T14:56:39.008Z,98416.13
2022-08-18T14:59:09.235Z,98424.50
2022-08-18T15:01:42.749Z,98422.19
2022-08-18T15:04:19.329Z,98419.75
2022-08-18T15:06:56.299Z,98420.03
2022-08-18T15:09:26.954Z,98416.19
2022-08-18T15:12:00.832Z,98414.28
2022-08-18T15:14:32.712Z,98419.09
2022-08-18T15:17:02.338Z,98407.69
2022-08-18T15:19:58.240Z,98406.25
2022-08-18T15:22:33.525Z,98404.84
2022-08-18T15:25:15.428Z,98400.22
2022-08-18T15:27:52.285Z,98411.09
2022-08-18T15:30:22.816Z,98413.97
2022-08-18T15:32:52.720Z,98409.47
2022-08-18T15:35:22.358Z,98421.56
2022-08-18T15:37:52.175Z,98424.63
2022-08-18T15:40:30.793Z,98419.34
2022-08-18T15:43:09.757Z,98429.41
2022-08-18T15:45:43.370Z,98424.19
2022-08-18T15:48:26.721Z,98423.03
2022-08-18T15:50:56.538Z,98421.84
2022-08-18T15:53:29.701Z,98413.66
2022-08-18T15:56:04.094Z,98410.28
2022-08-18T15:58:36.249Z,98414.44
2022-08-18T16:01:30.454Z,98403.69
2022-08-18T16:04:01.360Z,98397.56
2022-08-18T16:06:31.976Z,98391.03
2022-08-18T16:09:02.326Z,98393.22
2022-08-18T16:11:31.871Z,98394.00
2022-08-18T16:14:03.803Z,98392.66
2022-08-18T16:16:35.972Z,98395.25
2022-08-18T16:19:06.989Z,98390.19
2022-08-18T16:21:40.434Z,98388.53
2022-08-18T16:24:10.657Z,98390.34
2022-08-18T16:26:40.008Z,98391.94
2022-08-18T16:29:12.834Z,98384.97
2022-08-18T16:31:42.445Z,98393.09
2022-08-18T16:34:11.848Z,98387.78
2022-08-18T16:36:41.251Z,98389.09
2022-08-18T16:39:10.763Z,98378.09
2022-08-18T16:41:40.270Z,98389.88
2022-08-18T16:44:12.438Z,98391.00
2022-08-18T16:46:41.963Z,98390.00
2022-08-18T16:49:11.498Z,98385.19
2022-08-18T16:51:41.018Z,98391.13
2022-08-18T16:54:10.520Z,98391.75
2022-08-18T16:56:39.968Z,98388.78
2022-08-18T16:59:24.474Z,98393.81
2022-08-18T17:02:06.366Z,98390.78
2022-08-18T17:04:36.225Z,98388.34
2022-08-18T17:07:07.675Z,98387.97
2022-08-18T17:09:37.611Z,98386.50
2022-08-18T17:12:07.302Z,98385.94
2022-08-18T17:14:39.573Z,98384.03
2022-08-18T17:17:08.997Z,98379.53
2022-08-18T17:19:38.418Z,98378.25
2022-08-18T17:22:08.923Z,98372.72
2022-08-18T17:24:38.399Z,98374.63
2022-08-18T17:27:25.699Z,98372.25
2022-08-18T17:30:05.335Z,98377.84
2022-08-18T17:32:40.195Z,98378.41
2022-08-18T17:35:13.709Z,98375.78
2022-08-18T17:37:52.231Z,98380.28
2022-08-18T17:40:24.459Z,98385.69
2022-08-18T17:42:59.888Z,98382.00
2022-08-18T17:45:34.860Z,98378.38
2022-08-18T17:48:08.780Z,98381.66
2022-08-18T17:50:53.975Z,98382.28
2022-08-18T17:53:24.496Z,98381.88
2022-08-18T17:55:59.851Z,98385.28
2022-08-18T17:58:34.052Z,98386.59
2022-08-18T18:01:06.250Z,98378.84
2022-08-18T18:03:36.140Z,98388.81
2022-08-18T18:06:11.430Z,98394.09
2022-08-18T18:08:51.063Z,98397.56
2022-08-18T18:11:26.556Z,98394.34
2022-08-18T18:13:55.940Z,98394.13
2022-08-18T18:16:35.289Z,98392.31
2022-08-18T18:19:07.593Z,98391.59
2022-08-18T18:21:55.380Z,98388.47
2022-08-18T18:24:32.166Z,98388.03
2022-08-18T18:27:01.857Z,98402.53
2022-08-18T18:29:38.141Z,98398.00
2022-08-18T18:32:25.821Z,98401.28
2022-08-18T18:35:07.701Z,98399.47
2022-08-18T18:37:42.179Z,98403.78
2022-08-18T18:40:31.691Z,98402.50
2022-08-18T18:43:19.609Z,98408.84
2022-08-18T18:46:00.754Z,98412.13
2022-08-18T18:48:51.235Z,98412.69
2022-08-18T18:51:33.530Z,98419.25
2022-08-18T18:54:12.416Z,98413.97
2022-08-18T18:56:45.742Z,98422.00
2022-08-18T18:59:21.742Z,98420.06
2022-08-18T19:02:00.998Z,98419.38
2022-08-18T19:04:37.396Z,98424.50
2022-08-18T19:07:10.652Z,98426.66
2022-08-18T19:09:54.095Z,98420.72
2022-08-18T19:12:26.326Z,98429.66
2022-08-18T19:15:00.835Z,98425.72
2022-08-18T19:17:36.519Z,98424.09
2022-08-18T19:20:11.222Z,98431.44
2022-08-18T19:22:43.891Z,98431.50
2022-08-18T19:25:22.134Z,98437.41
2022-08-18T19:27:54.365Z,98437.75
2022-08-18T19:30:24.268Z,98440.72
2022-08-18T19:32:55.647Z,98440.78
2022-08-18T19:35:35.768Z,98448.88
2022-08-18T19:38:18.755Z,98454.56
2022-08-18T19:40:51.292Z,98452.13
2022-08-18T19:43:29.861Z,98451.63
2022-08-18T19:46:03.387Z,98455.78
2022-08-18T19:48:39.788Z,98445.06
2022-08-18T19:51:13.803Z,98457.13
2022-08-18T19:53:52.896Z,98457.97
2022-08-18T19:56:28.894Z,98454.44
2022-08-18T19:59:18.522Z,98456.84
2022-08-18T20:01:56.835Z,98457.13
2022-08-18T20:04:35.941Z,98457.09
2022-08-18T20:07:21.486Z,98451.63
2022-08-18T20:09:58.322Z,98453.28
2022-08-18T20:12:45.702Z,98452.25
2022-08-18T20:15:16.651Z,98455.56
2022-08-18T20:18:03.161Z,98456.16
2022-08-18T20:20:34.462Z,98459.44
2022-08-18T20:23:26.480Z,98463.75
2022-08-18T20:25:58.544Z,98456.16
2022-08-18T20:28:39.101Z,98456.97
2022-08-18T20:31:12.559Z,98455.38
2022-08-18T20:33:44.971Z,98457.81
2022-08-18T20:36:18.810Z,98475.31
2022-08-18T20:38:49.682Z,98471.03
2022-08-18T20:41:34.114Z,98472.34
2022-08-18T20:44:30.341Z,98471.81
2022-08-18T20:47:07.764Z,98470.47
2022-08-18T20:49:42.572Z,98474.47
2022-08-18T20:52:14.923Z,98482.84
2022-08-18T20:54:58.267Z,98483.09
2022-08-18T20:57:34.942Z,98486.38
2022-08-18T21:00:12.722Z,98488.84
2022-08-18T21:02:49.860Z,98492.84
2022-08-18T21:05:28.094Z,98495.88
2022-08-18T21:08:05.015Z,98501.53
2022-08-18T21:10:35.531Z,98505.34
2022-08-18T21:13:07.933Z,98503.28
2022-08-18T21:15:38.675Z,98502.75
2022-08-18T21:18:19.082Z,98497.84
2022-08-18T21:20:49.360Z,98487.34
2022-08-18T21:23:24.664Z,98484.09
2022-08-18T21:25:56.122Z,98485.19
2022-08-18T21:28:27.879Z,98490.31
2022-08-18T21:31:41.822Z,98489.81
2022-08-18T21:33:55.052Z,98485.31
2022-08-18T21:36:31.740Z,98488.84
2022-08-18T21:39:05.879Z,98486.16
2022-08-18T21:41:36.957Z,98479.69
2022-08-18T21:44:08.713Z,98469.25
2022-08-18T21:46:38.189Z,98480.31
2022-08-18T21:49:10.499Z,98482.75
2022-08-18T21:51:45.634Z,98485.16
2022-08-18T21:54:18.421Z,98490.59
2022-08-18T21:56:48.015Z,98484.16
2022-08-18T21:59:18.599Z,98489.00
2022-08-18T22:01:52.463Z,98490.34
2022-08-18T22:04:27.389Z,98492.00
2022-08-18T22:06:58.727Z,98496.78
2022-08-18T22:09:41.560Z,98501.66
2022-08-18T22:12:44.397Z,98504.06
2022-08-18T22:15:15.923Z,98503.25
2022-08-18T22:17:52.023Z,98511.31
2022-08-18T22:20:36.599Z,98512.94
2022-08-18T22:23:22.760Z,98520.47
